sensor_id;sensor_type;location;lat;lon;timestamp;pressure;altitude;pressure_sealevel;temperature;humidity
54948;BME280;41113;41.882;12.530;2023-01-26T00:01:26;100704.91;;;8.10;63.51
54948;BME280;41113;41.882;12.530;2023-01-26T00:03:53;100700.53;;;8.09;63.40
54948;BME280;41113;41.882;12.530;2023-01-26T00:06:20;100690.81;;;8.08;63.67
54948;BME280;41113;41.882;12.530;2023-01-26T00:08:48;100683.88;;;8.05;64.11
54948;BME280;41113;41.882;12.530;2023-01-26T00:11:17;100680.84;;;8.10;64.16
54948;BME280;41113;41.882;12.530;2023-01-26T00:13:42;100685.72;;;8.05;64.46
54948;BME280;41113;41.882;12.530;2023-01-26T00:16:14;100676.09;;;8.02;64.15
54948;BME280;41113;41.882;12.530;2023-01-26T00:18:40;100675.25;;;8.02;64.46
54948;BME280;41113;41.882;12.530;2023-01-26T00:21:07;100664.56;;;8.02;64.59
54948;BME280;41113;41.882;12.530;2023-01-26T00:23:34;100668.22;;;8.01;64.56
54948;BME280;41113;41.882;12.530;2023-01-26T00:26:00;100662.38;;;8.07;64.57
54948;BME280;41113;41.882;12.530;2023-01-26T00:28:28;100652.53;;;8.07;64.30
54948;BME280;41113;41.882;12.530;2023-01-26T00:30:58;100651.44;;;8.10;64.03
54948;BME280;41113;41.882;12.530;2023-01-26T00:33:25;100650.69;;;8.08;64.27
54948;BME280;41113;41.882;12.530;2023-01-26T00:35:54;100651.69;;;8.07;63.70
54948;BME280;41113;41.882;12.530;2023-01-26T00:38:19;100649.25;;;8.04;64.05
54948;BME280;41113;41.882;12.530;2023-01-26T00:40:45;100646.56;;;8.04;64.25
54948;BME280;41113;41.882;12.530;2023-01-26T00:43:10;100651.69;;;8.07;64.09
54948;BME280;41113;41.882;12.530;2023-01-26T00:45:36;100651.44;;;8.10;63.85
54948;BME280;41113;41.882;12.530;2023-01-26T00:48:01;100650.69;;;8.08;63.99
54948;BME280;41113;41.882;12.530;2023-01-26T00:50:26;100649.97;;;8.06;64.00
54948;BME280;41113;41.882;12.530;2023-01-26T00:52:52;100658.38;;;8.01;63.83
54948;BME280;41113;41.882;12.530;2023-01-26T00:55:18;100650.47;;;8.00;63.84
54948;BME280;41113;41.882;12.530;2023-01-26T00:57:43;100647.06;;;7.98;64.16
54948;BME280;41113;41.882;12.530;2023-01-26T01:00:09;100632.47;;;8.02;64.74
54948;BME280;41113;41.882;12.530;2023-01-26T01:02:41;100642.56;;;7.98;64.27
54948;BME280;41113;41.882;12.530;2023-01-26T01:05:07;100643.66;;;7.96;64.31
54948;BME280;41113;41.882;12.530;2023-01-26T01:07:32;100643.91;;;7.93;64.07
54948;BME280;41113;41.882;12.530;2023-01-26T01:09:58;100642.19;;;7.92;64.66
54948;BME280;41113;41.882;12.530;2023-01-26T01:12:24;100644.38;;;7.87;64.62
54948;BME280;41113;41.882;12.530;2023-01-26T01:14:50;100645.22;;;7.87;64.64
54948;BME280;41113;41.882;12.530;2023-01-26T01:17:15;100642.56;;;7.87;64.72
54948;BME280;41113;41.882;12.530;2023-01-26T01:19:41;100636.59;;;7.84;64.92
54948;BME280;41113;41.882;12.530;2023-01-26T01:22:06;100625.19;;;7.82;65.11
54948;BME280;41113;41.882;12.530;2023-01-26T01:24:32;100628.59;;;7.84;65.26
54948;BME280;41113;41.882;12.530;2023-01-26T01:26:59;100620.56;;;7.84;65.43
54948;BME280;41113;41.882;12.530;2023-01-26T01:29:24;100619.34;;;7.88;64.70
54948;BME280;41113;41.882;12.530;2023-01-26T01:31:50;100617.41;;;7.90;64.80
54948;BME280;41113;41.882;12.530;2023-01-26T01:34:15;100608.66;;;7.88;64.79
54948;BME280;41113;41.882;12.530;2023-01-26T01:36:40;100612.53;;;7.84;64.50
54948;BME280;41113;41.882;12.530;2023-01-26T01:39:06;100607.94;;;7.86;64.97
54948;BME280;41113;41.882;12.530;2023-01-26T01:41:32;100606.22;;;7.85;64.75
54948;BME280;41113;41.882;12.530;2023-01-26T01:44:30;100599.66;;;7.89;64.81
54948;BME280;41113;41.882;12.530;2023-01-26T01:46:56;100599.91;;;7.86;64.66
54948;BME280;41113;41.882;12.530;2023-01-26T01:49:46;100590.91;;;7.87;64.77
54948;BME280;41113;41.882;12.530;2023-01-26T01:52:20;100591.16;;;7.84;64.95
54948;BME280;41113;41.882;12.530;2023-01-26T01:54:53;100593.56;;;7.75;64.50
54948;BME280;41113;41.882;12.530;2023-01-26T01:57:24;100592.81;;;7.73;65.13
54948;BME280;41113;41.882;12.530;2023-01-26T02:00:02;100586.50;;;7.74;64.98
54948;BME280;41113;41.882;12.530;2023-01-26T02:02:28;100590.63;;;7.67;64.93
54948;BME280;41113;41.882;12.530;2023-01-26T02:04:57;100583.34;;;7.69;65.37
54948;BME280;41113;41.882;12.530;2023-01-26T02:07:27;100580.19;;;7.64;65.29
54948;BME280;41113;41.882;12.530;2023-01-26T02:09:54;100576.31;;;7.68;65.44
54948;BME280;41113;41.882;12.530;2023-01-26T02:12:39;100579.22;;;7.65;65.35
54948;BME280;41113;41.882;12.530;2023-01-26T02:15:05;100576.56;;;7.65;65.23
54948;BME280;41113;41.882;12.530;2023-01-26T02:17:31;100575.09;;;7.61;65.02
54948;BME280;41113;41.882;12.530;2023-01-26T02:23:04;100568.03;;;7.60;65.41
54948;BME280;41113;41.882;12.530;2023-01-26T02:28:17;100562.69;;;7.60;65.34
54948;BME280;41113;41.882;12.530;2023-01-26T02:30:44;100552.97;;;7.59;65.62
54948;BME280;41113;41.882;12.530;2023-01-26T02:33:17;100554.69;;;7.60;65.57
54948;BME280;41113;41.882;12.530;2023-01-26T02:35:43;100553.22;;;7.56;65.73
54948;BME280;41113;41.882;12.530;2023-01-26T02:38:08;100549.09;;;7.52;66.18
54948;BME280;41113;41.882;12.530;2023-01-26T02:43:11;100543.50;;;7.55;66.13
54948;BME280;41113;41.882;12.530;2023-01-26T02:45:38;100545.44;;;7.53;66.17
54948;BME280;41113;41.882;12.530;2023-01-26T02:48:04;100530.41;;;7.52;66.14
54948;BME280;41113;41.882;12.530;2023-01-26T02:50:31;100524.19;;;7.52;66.15
54948;BME280;41113;41.882;12.530;2023-01-26T02:52:57;100518.59;;;7.55;66.08
54948;BME280;41113;41.882;12.530;2023-01-26T02:55:22;100514.84;;;7.57;65.93
54948;BME280;41113;41.882;12.530;2023-01-26T02:58:03;100510.59;;;7.55;65.74
54948;BME280;41113;41.882;12.530;2023-01-26T03:00:31;100511.19;;;7.58;65.60
54948;BME280;41113;41.882;12.530;2023-01-26T03:02:59;100509.25;;;7.60;65.73
54948;BME280;41113;41.882;12.530;2023-01-26T03:05:26;100506.56;;;7.60;65.97
54948;BME280;41113;41.882;12.530;2023-01-26T03:07:52;100503.31;;;7.57;65.90
54948;BME280;41113;41.882;12.530;2023-01-26T03:10:18;100505.84;;;7.58;65.57
54948;BME280;41113;41.882;12.530;2023-01-26T03:12:44;100497.34;;;7.53;65.79
54948;BME280;41113;41.882;12.530;2023-01-26T03:15:10;100501.00;;;7.52;66.00
54948;BME280;41113;41.882;12.530;2023-01-26T03:18:03;100492.00;;;7.53;66.06
54948;BME280;41113;41.882;12.530;2023-01-26T03:20:47;100486.66;;;7.53;65.78
54948;BME280;41113;41.882;12.530;2023-01-26T03:23:30;100489.72;;;7.48;65.96
54948;BME280;41113;41.882;12.530;2023-01-26T03:26:14;100484.44;;;7.47;66.16
54948;BME280;41113;41.882;12.530;2023-01-26T03:28:58;100476.81;;;7.54;66.16
54948;BME280;41113;41.882;12.530;2023-01-26T03:31:23;100472.47;;;7.53;65.84
54948;BME280;41113;41.882;12.530;2023-01-26T03:33:48;100472.34;;;7.54;66.08
54948;BME280;41113;41.882;12.530;2023-01-26T03:36:14;100481.06;;;7.56;66.08
54948;BME280;41113;41.882;12.530;2023-01-26T03:38:39;100465.28;;;7.53;66.09
54948;BME280;41113;41.882;12.530;2023-01-26T03:41:04;100470.50;;;7.55;66.50
54948;BME280;41113;41.882;12.530;2023-01-26T03:43:48;100464.78;;;7.59;66.03
54948;BME280;41113;41.882;12.530;2023-01-26T03:46:32;100458.00;;;7.55;65.76
54948;BME280;41113;41.882;12.530;2023-01-26T03:49:16;100450.94;;;7.54;66.14
54948;BME280;41113;41.882;12.530;2023-01-26T03:52:00;100446.47;;;7.55;66.17
54948;BME280;41113;41.882;12.530;2023-01-26T03:54:44;100431.28;;;7.55;65.93
54948;BME280;41113;41.882;12.530;2023-01-26T03:57:28;100444.28;;;7.48;65.85
54948;BME280;41113;41.882;12.530;2023-01-26T03:59:53;100436.47;;;7.45;66.22
54948;BME280;41113;41.882;12.530;2023-01-26T04:02:19;100430.78;;;7.39;66.39
54948;BME280;41113;41.882;12.530;2023-01-26T04:05:03;100425.19;;;7.42;66.21
54948;BME280;41113;41.882;12.530;2023-01-26T04:07:47;100423.75;;;7.38;66.14
54948;BME280;41113;41.882;12.530;2023-01-26T04:10:32;100424.22;;;7.32;66.35
54948;BME280;41113;41.882;12.530;2023-01-26T04:12:57;100414.16;;;7.35;66.55
54948;BME280;41113;41.882;12.530;2023-01-26T04:15:41;100422.03;;;7.37;66.52
54948;BME280;41113;41.882;12.530;2023-01-26T04:18:25;100409.06;;;7.32;66.75
54948;BME280;41113;41.882;12.530;2023-01-26T04:21:09;100411.97;;;7.29;66.76
54948;BME280;41113;41.882;12.530;2023-01-26T04:23:54;100409.78;;;7.23;67.15
54948;BME280;41113;41.882;12.530;2023-01-26T04:26:25;100408.94;;;7.23;67.11
54948;BME280;41113;41.882;12.530;2023-01-26T04:28:51;100414.28;;;7.23;67.21
54948;BME280;41113;41.882;12.530;2023-01-26T04:31:17;100409.91;;;7.22;67.23
54948;BME280;41113;41.882;12.530;2023-01-26T04:33:43;100405.31;;;7.24;67.40
54948;BME280;41113;41.882;12.530;2023-01-26T04:36:09;100396.06;;;7.28;67.30
54948;BME280;41113;41.882;12.530;2023-01-26T04:38:35;100395.09;;;7.29;66.93
54948;BME280;41113;41.882;12.530;2023-01-26T04:41:00;100404.81;;;7.18;67.28
54948;BME280;41113;41.882;12.530;2023-01-26T04:43:26;100411.00;;;7.19;67.06
54948;BME280;41113;41.882;12.530;2023-01-26T04:46:05;100397.06;;;7.15;67.23
54948;BME280;41113;41.882;12.530;2023-01-26T04:48:32;100404.31;;;7.13;67.23
54948;BME280;41113;41.882;12.530;2023-01-26T04:51:11;100405.06;;;7.15;67.41
54948;BME280;41113;41.882;12.530;2023-01-26T04:53:37;100400.78;;;7.13;67.37
54948;BME280;41113;41.882;12.530;2023-01-26T04:56:02;100405.81;;;7.17;67.24
54948;BME280;41113;41.882;12.530;2023-01-26T04:58:28;100404.09;;;7.16;67.68
54948;BME280;41113;41.882;12.530;2023-01-26T05:00:55;100397.28;;;7.12;67.60
54948;BME280;41113;41.882;12.530;2023-01-26T05:03:22;100400.66;;;7.14;67.66
54948;BME280;41113;41.882;12.530;2023-01-26T05:05:48;100402.41;;;7.15;67.32
54948;BME280;41113;41.882;12.530;2023-01-26T05:08:15;100397.06;;;7.15;67.46
54948;BME280;41113;41.882;12.530;2023-01-26T05:10:41;100400.47;;;7.17;67.80
54948;BME280;41113;41.882;12.530;2023-01-26T05:13:07;100397.66;;;7.19;67.49
54948;BME280;41113;41.882;12.530;2023-01-26T05:15:32;100397.06;;;7.15;67.17
54948;BME280;41113;41.882;12.530;2023-01-26T05:17:58;100396.09;;;7.16;67.62
54948;BME280;41113;41.882;12.530;2023-01-26T05:20:26;100395.13;;;7.17;67.46
54948;BME280;41113;41.882;12.530;2023-01-26T05:22:52;100381.63;;;7.19;67.79
54948;BME280;41113;41.882;12.530;2023-01-26T05:25:17;100394.03;;;7.20;67.77
54948;BME280;41113;41.882;12.530;2023-01-26T05:27:43;100387.84;;;7.20;67.86
54948;BME280;41113;41.882;12.530;2023-01-26T05:30:09;100384.78;;;7.13;68.18
54948;BME280;41113;41.882;12.530;2023-01-26T05:32:35;100384.44;;;7.17;68.12
54948;BME280;41113;41.882;12.530;2023-01-26T05:35:01;100378.59;;;7.24;68.06
54948;BME280;41113;41.882;12.530;2023-01-26T05:37:27;100389.53;;;7.21;68.41
54948;BME280;41113;41.882;12.530;2023-01-26T05:39:53;100388.06;;;7.16;68.64
54948;BME280;41113;41.882;12.530;2023-01-26T05:42:19;100401.75;;;7.12;68.80
54948;BME280;41113;41.882;12.530;2023-01-26T05:44:44;100398.75;;;7.16;69.02
54948;BME280;41113;41.882;12.530;2023-01-26T05:47:10;100401.44;;;7.16;69.56
54948;BME280;41113;41.882;12.530;2023-01-26T05:49:35;100402.41;;;7.15;69.96
54948;BME280;41113;41.882;12.530;2023-01-26T05:52:14;100398.97;;;7.13;69.91
54948;BME280;41113;41.882;12.530;2023-01-26T05:54:40;100402.00;;;7.09;69.98
54948;BME280;41113;41.882;12.530;2023-01-26T05:57:06;100399.47;;;7.07;69.82
54948;BME280;41113;41.882;12.530;2023-01-26T05:59:31;100394.72;;;7.11;69.93
54948;BME280;41113;41.882;12.530;2023-01-26T06:01:57;100384.66;;;7.14;69.74
54948;BME280;41113;41.882;12.530;2023-01-26T06:04:23;100383.94;;;7.24;69.31
54948;BME280;41113;41.882;12.530;2023-01-26T06:06:51;100376.41;;;7.29;69.23
54948;BME280;41113;41.882;12.530;2023-01-26T06:09:16;100378.34;;;7.27;69.26
54948;BME280;41113;41.882;12.530;2023-01-26T06:11:42;100382.47;;;7.31;69.31
54948;BME280;41113;41.882;12.530;2023-01-26T06:14:07;100376.88;;;7.34;69.00
54948;BME280;41113;41.882;12.530;2023-01-26T06:16:32;100376.16;;;7.32;68.78
54948;BME280;41113;41.882;12.530;2023-01-26T06:18:58;100367.16;;;7.33;68.30
54948;BME280;41113;41.882;12.530;2023-01-26T06:21:23;100361.22;;;7.29;68.72
54948;BME280;41113;41.882;12.530;2023-01-26T06:23:49;100365.72;;;7.29;69.12
54948;BME280;41113;41.882;12.530;2023-01-26T06:26:14;100362.78;;;7.32;69.02
54948;BME280;41113;41.882;12.530;2023-01-26T06:28:39;100368.25;;;7.30;69.00
54948;BME280;41113;41.882;12.530;2023-01-26T06:31:07;100372.16;;;7.26;69.31
54948;BME280;41113;41.882;12.530;2023-01-26T06:33:34;100367.41;;;7.30;69.13
54948;BME280;41113;41.882;12.530;2023-01-26T06:36:05;100370.56;;;7.35;68.70
54948;BME280;41113;41.882;12.530;2023-01-26T06:38:31;100369.38;;;7.28;69.09
54948;BME280;41113;41.882;12.530;2023-01-26T06:41:06;100370.84;;;7.21;69.24
54948;BME280;41113;41.882;12.530;2023-01-26T06:43:33;100370.34;;;7.27;69.22
54948;BME280;41113;41.882;12.530;2023-01-26T06:45:58;100364.38;;;7.34;69.18
54948;BME280;41113;41.882;12.530;2023-01-26T06:48:25;100365.81;;;7.38;69.11
54948;BME280;41113;41.882;12.530;2023-01-26T06:50:51;100370.06;;;7.41;68.88
54948;BME280;41113;41.882;12.530;2023-01-26T06:53:37;100374.47;;;7.31;69.11
54948;BME280;41113;41.882;12.530;2023-01-26T06:56:06;100364.28;;;7.25;68.99
54948;BME280;41113;41.882;12.530;2023-01-26T06:58:32;100362.81;;;7.21;69.41
54948;BME280;41113;41.882;12.530;2023-01-26T07:00:57;100363.28;;;7.14;69.52
54948;BME280;41113;41.882;12.530;2023-01-26T07:03:24;100376.63;;;7.14;69.71
54948;BME280;41113;41.882;12.530;2023-01-26T07:05:49;100367.56;;;7.17;69.63
54948;BME280;41113;41.882;12.530;2023-01-26T07:08:14;100379.09;;;7.17;69.07
54948;BME280;41113;41.882;12.530;2023-01-26T07:10:40;100373.13;;;7.14;69.80
54948;BME280;41113;41.882;12.530;2023-01-26T07:13:06;100370.97;;;7.19;69.62
54948;BME280;41113;41.882;12.530;2023-01-26T07:15:31;100366.81;;;7.26;69.62
54948;BME280;41113;41.882;12.530;2023-01-26T07:17:57;100365.47;;;7.32;69.06
54948;BME280;41113;41.882;12.530;2023-01-26T07:20:23;100368.63;;;7.37;69.03
54948;BME280;41113;41.882;12.530;2023-01-26T07:22:49;100367.75;;;7.36;68.77
54948;BME280;41113;41.882;12.530;2023-01-26T07:25:15;100368.38;;;7.40;69.24
54948;BME280;41113;41.882;12.530;2023-01-26T07:27:40;100367.13;;;7.44;69.00
54948;BME280;41113;41.882;12.530;2023-01-26T07:30:06;100368.63;;;7.37;69.14
54948;BME280;41113;41.882;12.530;2023-01-26T07:32:32;100364.13;;;7.37;69.08
54948;BME280;41113;41.882;12.530;2023-01-26T07:34:57;100363.53;;;7.34;68.87
54948;BME280;41113;41.882;12.530;2023-01-26T07:37:26;100368.50;;;7.38;69.31
54948;BME280;41113;41.882;12.530;2023-01-26T07:39:52;100370.06;;;7.41;69.26
54948;BME280;41113;41.882;12.530;2023-01-26T07:42:17;100363.03;;;7.40;69.33
54948;BME280;41113;41.882;12.530;2023-01-26T07:44:42;100358.88;;;7.47;69.03
54948;BME280;41113;41.882;12.530;2023-01-26T07:47:08;100362.91;;;7.53;68.39
54948;BME280;41113;41.882;12.530;2023-01-26T07:49:33;100360.94;;;7.55;68.50
54948;BME280;41113;41.882;12.530;2023-01-26T07:51:58;100349.66;;;7.51;68.74
54948;BME280;41113;41.882;12.530;2023-01-26T07:54:24;100352.34;;;7.51;68.67
54948;BME280;41113;41.882;12.530;2023-01-26T07:56:53;100352.56;;;7.59;68.98
54948;BME280;41113;41.882;12.530;2023-01-26T07:59:21;100350.81;;;7.80;68.39
54948;BME280;41113;41.882;12.530;2023-01-26T08:01:50;100343.25;;;7.86;67.55
54948;BME280;41113;41.882;12.530;2023-01-26T08:04:15;100350.63;;;7.93;67.24
54948;BME280;41113;41.882;12.530;2023-01-26T08:06:41;100350.03;;;7.78;66.79
54948;BME280;41113;41.882;12.530;2023-01-26T08:09:06;100347.16;;;7.82;67.38
54948;BME280;41113;41.882;12.530;2023-01-26T08:11:32;100345.53;;;7.90;67.29
54948;BME280;41113;41.882;12.530;2023-01-26T08:13:57;100347.28;;;8.01;67.04
54948;BME280;41113;41.882;12.530;2023-01-26T08:16:22;100347.28;;;8.01;66.78
54948;BME280;41113;41.882;12.530;2023-01-26T08:18:49;100337.03;;;7.85;66.91
54948;BME280;41113;41.882;12.530;2023-01-26T08:21:16;100346.16;;;7.83;66.96
54948;BME280;41113;41.882;12.530;2023-01-26T08:23:42;100343.25;;;7.86;66.76
54948;BME280;41113;41.882;12.530;2023-01-26T08:26:10;100353.16;;;7.95;66.86
54948;BME280;41113;41.882;12.530;2023-01-26T08:28:36;100341.94;;;8.01;66.27
54948;BME280;41113;41.882;12.530;2023-01-26T08:31:09;100344.75;;;7.99;66.38
54948;BME280;41113;41.882;12.530;2023-01-26T08:33:36;100334.13;;;8.09;66.12
54948;BME280;41113;41.882;12.530;2023-01-26T08:36:06;100340.47;;;8.29;65.94
54948;BME280;41113;41.882;12.530;2023-01-26T08:38:33;100339.19;;;8.44;65.43
54948;BME280;41113;41.882;12.530;2023-01-26T08:40:59;100344.72;;;8.31;65.03
54948;BME280;41113;41.882;12.530;2023-01-26T08:43:26;100341.31;;;8.29;65.44
54948;BME280;41113;41.882;12.530;2023-01-26T08:45:52;100332.09;;;8.33;65.33
54948;BME280;41113;41.882;12.530;2023-01-26T08:48:18;100323.75;;;8.48;65.33
54948;BME280;41113;41.882;12.530;2023-01-26T08:50:43;100315.63;;;8.59;65.03
54948;BME280;41113;41.882;12.530;2023-01-26T08:53:09;100319.34;;;8.67;65.07
54948;BME280;41113;41.882;12.530;2023-01-26T08:55:34;100315.09;;;8.65;64.97
54948;BME280;41113;41.882;12.530;2023-01-26T08:58:00;100307.91;;;8.65;64.48
54948;BME280;41113;41.882;12.530;2023-01-26T09:00:26;100312.88;;;8.70;64.26
54948;BME280;41113;41.882;12.530;2023-01-26T09:02:59;100315.34;;;8.83;64.16
54948;BME280;41113;41.882;12.530;2023-01-26T09:05:25;100307.31;;;8.83;63.56
54948;BME280;41113;41.882;12.530;2023-01-26T09:07:50;100300.00;;;8.94;64.23
54948;BME280;41113;41.882;12.530;2023-01-26T09:10:16;100306.94;;;9.07;64.00
54948;BME280;41113;41.882;12.530;2023-01-26T09:12:41;100301.06;;;9.13;63.46
54948;BME280;41113;41.882;12.530;2023-01-26T09:15:08;100304.19;;;9.18;63.23
54948;BME280;41113;41.882;12.530;2023-01-26T09:17:33;100295.59;;;9.24;62.61
54948;BME280;41113;41.882;12.530;2023-01-26T09:20:00;100302.09;;;9.31;62.31
54948;BME280;41113;41.882;12.530;2023-01-26T09:22:25;100295.91;;;9.40;62.12
54948;BME280;41113;41.882;12.530;2023-01-26T09:24:51;100299.03;;;9.55;62.40
54948;BME280;41113;41.882;12.530;2023-01-26T09:27:16;100299.03;;;9.64;61.37
54948;BME280;41113;41.882;12.530;2023-01-26T09:29:41;100293.41;;;9.67;61.05
54948;BME280;41113;41.882;12.530;2023-01-26T09:32:07;100289.16;;;9.75;60.13
54948;BME280;41113;41.882;12.530;2023-01-26T09:34:33;100292.28;;;9.89;59.60
54948;BME280;41113;41.882;12.530;2023-01-26T09:36:58;100284.94;;;10.01;59.61
54948;BME280;41113;41.882;12.530;2023-01-26T09:39:23;100276.91;;;10.20;59.34
54948;BME280;41113;41.882;12.530;2023-01-26T09:44:26;100277.28;;;10.45;58.49
54948;BME280;41113;41.882;12.530;2023-01-26T09:47:05;100282.34;;;10.48;57.67
54948;BME280;41113;41.882;12.530;2023-01-26T09:54:51;100282.28;;;10.67;56.25
54948;BME280;41113;41.882;12.530;2023-01-26T09:57:24;100274.91;;;10.69;56.22
54948;BME280;41113;41.882;12.530;2023-01-26T10:00:07;100272.97;;;10.62;55.73
54948;BME280;41113;41.882;12.530;2023-01-26T10:03:02;100262.19;;;10.71;55.88
54948;BME280;41113;41.882;12.530;2023-01-26T10:05:42;100260.47;;;10.80;55.77
54948;BME280;41113;41.882;12.530;2023-01-26T10:08:11;100255.66;;;10.83;55.77
54948;BME280;41113;41.882;12.530;2023-01-26T10:10:46;100254.84;;;11.01;55.77
54948;BME280;41113;41.882;12.530;2023-01-26T10:13:13;100249.22;;;10.94;54.31
54948;BME280;41113;41.882;12.530;2023-01-26T10:15:46;100248.78;;;10.99;54.75
54948;BME280;41113;41.882;12.530;2023-01-26T10:18:26;100247.69;;;10.91;53.91
54948;BME280;41113;41.882;12.530;2023-01-26T10:20:57;100232.97;;;10.96;54.65
54948;BME280;41113;41.882;12.530;2023-01-26T10:23:31;100237.19;;;10.98;54.68
54948;BME280;41113;41.882;12.530;2023-01-26T10:26:12;100227.47;;;11.15;54.65
54948;BME280;41113;41.882;12.530;2023-01-26T10:28:40;100231.00;;;11.15;54.31
54948;BME280;41113;41.882;12.530;2023-01-26T10:31:25;100225.72;;;11.06;54.28
54948;BME280;41113;41.882;12.530;2023-01-26T10:33:54;100224.41;;;11.10;54.64
54948;BME280;41113;41.882;12.530;2023-01-26T10:36:20;100224.72;;;11.07;53.87
54948;BME280;41113;41.882;12.530;2023-01-26T10:38:47;100227.25;;;11.08;53.66
54948;BME280;41113;41.882;12.530;2023-01-26T10:43:48;100216.03;;;11.31;53.02
54948;BME280;41113;41.882;12.530;2023-01-26T10:48:51;100200.09;;;11.47;53.35
54948;BME280;41113;41.882;12.530;2023-01-26T10:51:24;100208.34;;;11.36;52.78
54948;BME280;41113;41.882;12.530;2023-01-26T10:53:55;100188.63;;;11.27;53.19
54948;BME280;41113;41.882;12.530;2023-01-26T10:56:35;100197.75;;;11.16;53.03
54948;BME280;41113;41.882;12.530;2023-01-26T10:59:07;100200.31;;;11.18;53.68
54948;BME280;41113;41.882;12.530;2023-01-26T11:01:50;100184.94;;;11.28;53.75
54948;BME280;41113;41.882;12.530;2023-01-26T11:04:16;100184.16;;;11.36;53.99
54948;BME280;41113;41.882;12.530;2023-01-26T11:06:41;100183.03;;;11.38;53.47
54948;BME280;41113;41.882;12.530;2023-01-26T11:11:39;100161.44;;;11.30;52.59
54948;BME280;41113;41.882;12.530;2023-01-26T11:14:17;100167.75;;;11.21;53.25
54948;BME280;41113;41.882;12.530;2023-01-26T11:16:58;100160.38;;;11.23;52.44
54948;BME280;41113;41.882;12.530;2023-01-26T11:22:12;100165.75;;;11.23;52.79
54948;BME280;41113;41.882;12.530;2023-01-26T11:24:50;100158.13;;;11.18;52.80
54948;BME280;41113;41.882;12.530;2023-01-26T11:27:42;100148.38;;;11.35;53.34
54948;BME280;41113;41.882;12.530;2023-01-26T11:33:14;100132.94;;;11.37;51.98
54948;BME280;41113;41.882;12.530;2023-01-26T11:35:56;100136.19;;;11.41;52.24
54948;BME280;41113;41.882;12.530;2023-01-26T11:38:50;100135.34;;;11.40;51.61
54948;BME280;41113;41.882;12.530;2023-01-26T11:41:27;100117.72;;;11.46;52.21
54948;BME280;41113;41.882;12.530;2023-01-26T11:55:17;100089.47;;;11.68;51.81
54948;BME280;41113;41.882;12.530;2023-01-26T12:00:49;100091.59;;;11.56;51.01
54948;BME280;41113;41.882;12.530;2023-01-26T12:04:01;100074.28;;;11.59;51.01
54948;BME280;41113;41.882;12.530;2023-01-26T12:06:05;100072.47;;;11.67;51.13
54948;BME280;41113;41.882;12.530;2023-01-26T12:08:34;100068.75;;;11.78;50.67
54948;BME280;41113;41.882;12.530;2023-01-26T12:11:13;100054.00;;;11.90;51.18
54948;BME280;41113;41.882;12.530;2023-01-26T12:13:56;100067.44;;;11.90;49.61
54948;BME280;41113;41.882;12.530;2023-01-26T12:17:05;100067.25;;;11.83;49.04
54948;BME280;41113;41.882;12.530;2023-01-26T12:19:56;100059.69;;;11.87;49.31
54948;BME280;41113;41.882;12.530;2023-01-26T12:22:35;100060.06;;;11.92;49.50
54948;BME280;41113;41.882;12.530;2023-01-26T12:25:22;100047.28;;;11.94;48.91
54948;BME280;41113;41.882;12.530;2023-01-26T12:30:29;100041.66;;;12.13;49.32
54948;BME280;41113;41.882;12.530;2023-01-26T12:32:56;100046.34;;;12.03;49.06
54948;BME280;41113;41.882;12.530;2023-01-26T12:38:22;100037.53;;;11.93;48.51
54948;BME280;41113;41.882;12.530;2023-01-26T12:41:37;100024.72;;;11.87;47.96
54948;BME280;41113;41.882;12.530;2023-01-26T12:46:46;100023.22;;;11.93;48.55
54948;BME280;41113;41.882;12.530;2023-01-26T12:52:06;100018.88;;;12.00;47.74
54948;BME280;41113;41.882;12.530;2023-01-26T12:54:45;100021.97;;;12.05;48.39
54948;BME280;41113;41.882;12.530;2023-01-26T12:57:20;100017.41;;;12.05;49.42
54948;BME280;41113;41.882;12.530;2023-01-26T12:59:46;100020.94;;;12.06;49.07
54948;BME280;41113;41.882;12.530;2023-01-26T13:04:44;100008.13;;;12.00;49.28
54948;BME280;41113;41.882;12.530;2023-01-26T13:15:19;100001.44;;;12.04;50.00
54948;BME280;41113;41.882;12.530;2023-01-26T13:20:22;100009.97;;;11.99;49.26
54948;BME280;41113;41.882;12.530;2023-01-26T13:22:48;100006.25;;;11.92;49.26
54948;BME280;41113;41.882;12.530;2023-01-26T13:25:32;100011.28;;;11.87;49.55
54948;BME280;41113;41.882;12.530;2023-01-26T13:28:02;99998.13;;;11.84;49.65
54948;BME280;41113;41.882;12.530;2023-01-26T13:30:55;100003.84;;;11.81;49.75
54948;BME280;41113;41.882;12.530;2023-01-26T13:33:26;99994.09;;;11.80;49.81
54948;BME280;41113;41.882;12.530;2023-01-26T13:35:53;99993.94;;;11.81;49.75
54948;BME280;41113;41.882;12.530;2023-01-26T13:38:42;99989.72;;;11.79;49.43
54948;BME280;41113;41.882;12.530;2023-01-26T13:41:14;99993.09;;;11.81;49.44
54948;BME280;41113;41.882;12.530;2023-01-26T13:43:47;99988.72;;;11.80;49.18
54948;BME280;41113;41.882;12.530;2023-01-26T13:48:43;99979.78;;;11.79;49.52
54948;BME280;41113;41.882;12.530;2023-01-26T13:51:17;99977.28;;;11.86;50.10
54948;BME280;41113;41.882;12.530;2023-01-26T13:59:06;99997.16;;;11.93;49.42
54948;BME280;41113;41.882;12.530;2023-01-26T14:01:32;99983.03;;;11.91;48.74
54948;BME280;41113;41.882;12.530;2023-01-26T14:04:02;99979.16;;;11.94;49.56
54948;BME280;41113;41.882;12.530;2023-01-26T14:06:28;99988.09;;;11.94;49.07
54948;BME280;41113;41.882;12.530;2023-01-26T14:08:55;99988.94;;;11.95;48.74
54948;BME280;41113;41.882;12.530;2023-01-26T14:11:22;99985.75;;;11.99;48.35
54948;BME280;41113;41.882;12.530;2023-01-26T14:13:53;99980.88;;;12.03;48.75
54948;BME280;41113;41.882;12.530;2023-01-26T14:16:27;99992.81;;;12.00;49.28
54948;BME280;41113;41.882;12.530;2023-01-26T14:19:15;99993.34;;;12.04;48.90